Time;durP1;ratioP1;P1;durP2;ratioP2;P2;SDS_P1;SDS_P2;PMS_P1;PMS_P2;Temp;Humidity;BMP_temperature;BMP_pressure;BME280_temperature;BME280_humidity;BME280_pressure;Samples;Min_cycle;Max_cycle;Signal;HPM_P1;HPM_P2
2022/06/25 00:01:18;;;;;;;2.23;2.00;;;17.90;99.90;;;;;;5023307;28;20175;-74
2022/06/25 00:03:44;;;;;;;2.23;2.03;;;17.90;99.90;;;;;;5026169;28;20206;-75
2022/06/25 00:06:10;;;;;;;2.87;2.60;;;17.80;99.90;;;;;;5028367;28;20202;-75
2022/06/25 00:08:37;;;;;;;2.10;1.90;;;17.80;99.90;;;;;;5028280;28;20418;-73
2022/06/25 00:11:04;;;;;;;3.90;2.80;;;17.80;99.90;;;;;;5029602;28;20414;-76
2022/06/25 00:13:31;;;;;;;2.73;2.53;;;17.80;99.90;;;;;;5026900;28;20428;-75
2022/06/25 00:15:57;;;;;;;2.40;2.20;;;17.70;99.90;;;;;;5026455;28;20402;-76
2022/06/25 00:18:22;;;;;;;5.23;2.33;;;17.70;99.90;;;;;;5026849;28;20476;-74
2022/06/25 00:20:48;;;;;;;2.37;2.20;;;17.70;99.90;;;;;;5026647;28;20418;-75
2022/06/25 00:23:14;;;;;;;3.63;2.17;;;17.60;99.90;;;;;;5026462;28;20261;-75
2022/06/25 00:25:40;;;;;;;4.87;2.17;;;17.60;99.90;;;;;;5026979;28;20809;-75
2022/06/25 00:28:06;;;;;;;2.60;2.20;;;17.70;99.90;;;;;;5026574;28;20798;-75
2022/06/25 00:30:33;;;;;;;3.70;2.47;;;17.60;99.90;;;;;;5026681;28;20889;-75
2022/06/25 00:32:59;;;;;;;3.57;2.30;;;17.50;99.90;;;;;;5026221;28;20413;-75
2022/06/25 00:35:26;;;;;;;2.80;2.10;;;17.50;99.90;;;;;;5026528;28;20416;-75
2022/06/25 00:37:52;;;;;;;2.37;2.17;;;17.50;99.90;;;;;;5026199;28;20539;-75
2022/06/25 00:40:18;;;;;;;3.00;2.17;;;17.50;99.90;;;;;;5026420;28;20825;-75
2022/06/25 00:42:45;;;;;;;2.87;2.50;;;17.50;99.90;;;;;;5026352;28;20220;-74
2022/06/25 00:45:11;;;;;;;2.83;2.17;;;17.50;99.90;;;;;;5026283;28;20412;-74
2022/06/25 00:47:37;;;;;;;3.03;2.67;;;17.50;99.90;;;;;;5025758;28;20486;-75
2022/06/25 00:50:03;;;;;;;3.57;2.73;;;17.60;99.90;;;;;;5026265;28;20275;-75
2022/06/25 00:52:33;;;;;;;2.00;1.90;;;17.60;99.90;;;;;;5025780;28;20205;-74
2022/06/25 00:55:06;;;;;;;2.57;1.97;;;17.60;99.90;;;;;;5025766;28;20433;-74
2022/06/25 00:57:33;;;;;;;2.80;2.60;;;17.70;99.90;;;;;;5026004;28;21011;-75
2022/06/25 01:00:04;;;;;;;2.20;2.10;;;17.80;99.90;;;;;;5025886;28;20529;-74
2022/06/25 01:02:30;;;;;;;2.67;2.40;;;17.70;99.90;;;;;;5025771;28;20500;-74
2022/06/25 01:04:56;;;;;;;2.50;2.00;;;17.70;99.90;;;;;;5025862;28;20543;-75
2022/06/25 01:07:22;;;;;;;2.13;2.03;;;17.80;99.90;;;;;;5025710;28;20427;-75
2022/06/25 01:09:51;;;;;;;2.10;1.93;;;17.70;99.90;;;;;;5025997;28;20422;-74
2022/06/25 01:12:17;;;;;;;2.83;2.30;;;17.70;99.90;;;;;;5025932;28;21475;-76
2022/06/25 01:14:43;;;;;;;2.03;1.93;;;17.70;99.90;;;;;;5025305;28;20437;-75
2022/06/25 01:17:09;;;;;;;3.13;2.53;;;17.70;99.90;;;;;;5024532;28;20186;-75
2022/06/25 01:19:36;;;;;;;2.10;2.00;;;17.60;99.90;;;;;;5025584;28;20918;-73
2022/06/25 01:22:08;;;;;;;2.17;1.90;;;17.60;99.90;;;;;;5025402;28;20786;-74
2022/06/25 01:24:34;;;;;;;2.00;1.90;;;17.60;99.90;;;;;;5025223;28;20537;-75
2022/06/25 01:27:00;;;;;;;1.97;1.87;;;17.70;99.90;;;;;;5025118;28;20501;-74
2022/06/25 01:29:25;;;;;;;2.30;2.10;;;17.70;99.90;;;;;;5025310;28;20417;-74
2022/06/25 01:31:52;;;;;;;2.30;2.03;;;17.70;99.90;;;;;;5025068;28;20502;-75
2022/06/25 01:34:18;;;;;;;2.30;2.10;;;17.60;99.90;;;;;;5025235;28;20195;-75
2022/06/25 01:36:43;;;;;;;2.33;2.13;;;17.60;99.90;;;;;;5025438;28;20414;-75
2022/06/25 01:39:10;;;;;;;2.00;1.80;;;17.50;99.90;;;;;;5026099;28;20719;-77
2022/06/25 01:41:35;;;;;;;2.17;2.00;;;17.40;99.90;;;;;;5025582;28;20664;-74
2022/06/25 01:44:01;;;;;;;2.90;2.30;;;17.40;99.90;;;;;;5025887;28;20436;-75
2022/06/25 01:46:27;;;;;;;2.00;1.80;;;17.40;99.90;;;;;;5025262;28;20204;-76
2022/06/25 01:48:53;;;;;;;2.63;2.00;;;17.30;99.90;;;;;;5024996;28;20268;-76
2022/06/25 01:51:20;;;;;;;2.20;2.10;;;17.20;99.90;;;;;;5025228;28;20500;-75
2022/06/25 01:53:45;;;;;;;2.50;2.30;;;17.30;99.90;;;;;;5024681;28;20689;-76
2022/06/25 01:56:11;;;;;;;2.00;1.90;;;17.30;99.90;;;;;;5025445;28;20428;-75
2022/06/25 01:58:37;;;;;;;2.60;2.03;;;17.30;99.90;;;;;;5024490;28;20282;-76
2022/06/25 02:01:04;;;;;;;2.20;1.90;;;17.20;99.90;;;;;;5025039;28;20602;-75
2022/06/25 02:03:29;;;;;;;3.47;2.50;;;17.20;99.90;;;;;;5024876;28;20198;-76
2022/06/25 02:05:58;;;;;;;2.10;1.90;;;17.10;99.90;;;;;;5024473;28;20492;-75
2022/06/25 02:08:27;;;;;;;2.93;2.10;;;17.10;99.90;;;;;;5024628;28;20182;-75
2022/06/25 02:10:53;;;;;;;3.03;2.43;;;17.10;99.90;;;;;;5024653;28;20792;-76
2022/06/25 02:13:19;;;;;;;2.60;2.40;;;17.10;99.90;;;;;;5024388;28;20937;-75
2022/06/25 02:15:45;;;;;;;2.40;2.20;;;17.20;99.90;;;;;;5024763;28;20485;-75
2022/06/25 02:18:11;;;;;;;2.70;2.20;;;17.20;99.90;;;;;;5024232;28;20269;-74
2022/06/25 02:20:37;;;;;;;2.00;1.80;;;17.30;99.90;;;;;;5024287;28;20170;-75
2022/06/25 02:23:04;;;;;;;10.30;2.53;;;17.20;99.90;;;;;;5024308;28;20791;-74
2022/06/25 02:25:30;;;;;;;2.00;1.90;;;17.20;99.90;;;;;;5023647;28;20909;-75
2022/06/25 02:27:56;;;;;;;5.17;2.43;;;17.20;99.90;;;;;;5006526;28;20433;-75
2022/06/25 02:30:22;;;;;;;2.57;2.30;;;16.90;99.90;;;;;;5024772;28;20230;-75
2022/06/25 02:32:47;;;;;;;3.13;2.20;;;16.90;99.90;;;;;;5023818;28;20610;-75
2022/06/25 02:35:13;;;;;;;3.50;1.97;;;16.90;99.90;;;;;;5024400;28;20421;-75
2022/06/25 02:37:39;;;;;;;4.10;2.43;;;17.00;99.90;;;;;;5023739;28;20307;-74
2022/06/25 02:40:05;;;;;;;1.90;1.80;;;16.90;99.90;;;;;;5024212;28;20209;-75
2022/06/25 02:42:36;;;;;;;2.23;1.80;;;16.90;99.90;;;;;;5023857;28;20184;-76
2022/06/25 02:45:04;;;;;;;6.03;2.60;;;16.90;99.90;;;;;;5024109;28;20431;-73
2022/06/25 02:47:29;;;;;;;3.60;2.20;;;16.90;99.90;;;;;;5023660;28;20418;-76
2022/06/25 02:49:55;;;;;;;1.87;1.50;;;17.00;99.90;;;;;;5024155;28;20452;-74
2022/06/25 02:52:21;;;;;;;2.23;2.00;;;17.00;99.90;;;;;;5023608;28;20234;-75
2022/06/25 02:54:46;;;;;;;4.27;2.20;;;17.00;99.90;;;;;;5023834;28;20565;-76
2022/06/25 02:59:57;;;;;;;1.87;1.77;;;16.90;99.90;;;;;;5024164;28;20784;-76
2022/06/25 03:02:22;;;;;;;3.20;2.07;;;16.80;99.90;;;;;;5023704;28;20509;-75
2022/06/25 03:04:48;;;;;;;2.60;2.20;;;16.80;99.90;;;;;;5024254;28;20515;-74
2022/06/25 03:07:14;;;;;;;2.37;2.17;;;16.90;99.90;;;;;;5006339;28;20650;-75
2022/06/25 03:09:39;;;;;;;2.53;2.00;;;16.90;99.90;;;;;;5024061;28;20185;-74
2022/06/25 03:12:05;;;;;;;4.00;2.60;;;16.80;99.90;;;;;;5024084;28;20194;-75
2022/06/25 03:14:31;;;;;;;2.07;1.93;;;16.70;99.90;;;;;;5023896;28;20229;-76
2022/06/25 03:16:56;;;;;;;2.30;2.10;;;16.80;99.90;;;;;;5023675;28;20858;-76
2022/06/25 03:19:22;;;;;;;2.47;2.27;;;16.80;99.90;;;;;;5006064;28;20206;-75
2022/06/25 03:21:48;;;;;;;2.30;1.97;;;16.70;99.90;;;;;;5006544;28;20183;-75
2022/06/25 03:24:14;;;;;;;4.00;2.20;;;16.70;99.90;;;;;;5023955;28;20704;-74
2022/06/25 03:26:39;;;;;;;5.30;2.20;;;16.80;99.90;;;;;;5023877;28;20178;-75
2022/06/25 03:29:05;;;;;;;4.10;2.30;;;16.80;99.90;;;;;;5024016;28;20469;-75
2022/06/25 03:31:31;;;;;;;2.93;2.63;;;16.80;99.90;;;;;;5024315;28;20252;-75
2022/06/25 03:33:57;;;;;;;2.80;2.20;;;16.80;99.90;;;;;;5023920;28;20219;-77
2022/06/25 03:36:22;;;;;;;3.53;2.30;;;16.80;99.90;;;;;;5024711;28;20183;-75
2022/06/25 03:38:48;;;;;;;2.40;1.83;;;16.80;99.90;;;;;;5027394;28;20757;-74
2022/06/25 03:44:03;;;;;;;4.50;2.00;;;16.70;99.90;;;;;;5027389;28;20205;-75
2022/06/25 03:46:29;;;;;;;3.43;2.97;;;16.80;99.90;;;;;;5027391;28;20490;-74
2022/06/25 03:48:55;;;;;;;2.97;2.03;;;16.80;99.90;;;;;;5028785;28;20421;-75
2022/06/25 03:51:20;;;;;;;3.30;1.87;;;16.90;99.90;;;;;;5029880;28;20526;-74
2022/06/25 03:53:46;;;;;;;1.80;1.67;;;16.90;99.90;;;;;;5029242;28;20291;-74
2022/06/25 03:56:12;;;;;;;5.13;2.47;;;16.90;99.90;;;;;;5029114;28;20186;-75
2022/06/25 03:58:38;;;;;;;2.30;2.10;;;16.90;99.90;;;;;;5028265;28;20740;-74
2022/06/25 04:01:03;;;;;;;2.50;2.30;;;16.90;99.90;;;;;;5027462;28;20511;-74
2022/06/25 04:03:30;;;;;;;2.57;1.97;;;16.90;99.90;;;;;;5026851;28;20524;-74
2022/06/25 04:05:56;;;;;;;2.37;2.17;;;16.90;99.90;;;;;;5026528;28;20186;-75
2022/06/25 04:08:21;;;;;;;3.60;2.00;;;16.90;99.90;;;;;;5026825;28;20498;-75
2022/06/25 04:10:47;;;;;;;1.77;1.67;;;17.00;99.90;;;;;;5025837;28;20526;-74
2022/06/25 04:13:13;;;;;;;1.70;1.60;;;17.20;99.90;;;;;;5026966;28;20229;-74
2022/06/25 04:15:38;;;;;;;1.90;1.80;;;17.30;99.90;;;;;;5026775;28;20191;-74
2022/06/25 04:18:04;;;;;;;2.20;2.00;;;17.50;99.90;;;;;;5026788;28;20211;-75
2022/06/25 04:20:30;;;;;;;2.90;1.80;;;17.50;99.90;;;;;;5026664;28;20240;-75
2022/06/25 04:22:55;;;;;;;2.10;1.90;;;17.50;99.90;;;;;;5026373;28;20193;-74
2022/06/25 04:25:22;;;;;;;2.90;1.50;;;17.30;99.90;;;;;;5026406;28;20302;-74
2022/06/25 04:30:32;;;;;;;1.73;1.63;;;17.50;99.90;;;;;;5027268;28;21320;-75
2022/06/25 04:32:57;;;;;;;1.50;1.40;;;17.40;99.90;;;;;;5026090;28;20414;-74
2022/06/25 04:35:23;;;;;;;1.73;1.63;;;17.50;99.90;;;;;;5026629;28;20176;-74
2022/06/25 04:37:49;;;;;;;2.90;1.77;;;17.50;99.90;;;;;;5026208;28;20206;-74
2022/06/25 04:40:15;;;;;;;5.20;2.00;;;17.70;99.90;;;;;;5026702;28;20223;-76
2022/06/25 04:42:40;;;;;;;2.10;1.50;;;17.80;99.90;;;;;;5026133;28;20193;-74
2022/06/25 04:45:06;;;;;;;1.90;1.70;;;17.80;99.90;;;;;;5026254;28;20242;-74
2022/06/25 04:47:32;;;;;;;1.77;1.30;;;17.80;99.90;;;;;;5025372;28;20174;-75
2022/06/25 04:49:58;;;;;;;1.70;1.60;;;17.80;99.90;;;;;;5025769;28;20416;-75
2022/06/25 04:52:23;;;;;;;1.57;1.33;;;17.80;99.90;;;;;;5025691;28;20179;-74
2022/06/25 04:54:49;;;;;;;1.80;1.47;;;17.90;99.90;;;;;;5025818;28;20600;-75
2022/06/25 04:57:14;;;;;;;2.80;1.40;;;17.90;99.90;;;;;;5025965;28;20179;-75
2022/06/25 04:59:40;;;;;;;2.70;1.87;;;18.00;99.90;;;;;;5025923;28;20206;-75
2022/06/25 05:02:06;;;;;;;1.57;1.47;;;18.10;99.90;;;;;;5025807;28;20172;-75
2022/06/25 05:04:31;;;;;;;1.67;1.57;;;18.10;99.90;;;;;;5025816;28;20683;-76
2022/06/25 05:06:58;;;;;;;1.70;1.60;;;18.20;99.90;;;;;;5025985;28;20739;-75
2022/06/25 05:09:25;;;;;;;1.40;1.30;;;18.30;99.90;;;;;;5025833;28;20195;-74
2022/06/25 05:11:51;;;;;;;2.43;1.40;;;18.40;99.90;;;;;;5026098;28;20502;-76
2022/06/25 05:14:16;;;;;;;2.23;1.47;;;18.50;99.90;;;;;;5007608;28;20528;-75
2022/06/25 05:16:42;;;;;;;2.60;1.50;;;18.60;99.90;;;;;;5024886;28;20421;-75
2022/06/25 05:19:08;;;;;;;1.70;1.60;;;18.80;99.90;;;;;;5025882;28;20253;-75
2022/06/25 05:21:34;;;;;;;2.50;1.70;;;18.90;99.90;;;;;;5025280;28;20179;-76
2022/06/25 05:23:59;;;;;;;3.43;2.07;;;18.90;99.90;;;;;;5025309;28;20710;-74
2022/06/25 05:26:25;;;;;;;2.43;1.50;;;18.90;99.90;;;;;;5025639;28;20414;-73
2022/06/25 05:28:51;;;;;;;2.90;1.70;;;19.00;99.90;;;;;;5024443;28;20259;-74
2022/06/25 05:31:16;;;;;;;4.13;1.60;;;19.10;99.90;;;;;;5007272;28;20209;-75
2022/06/25 05:33:42;;;;;;;1.57;1.47;;;19.20;99.90;;;;;;5025092;28;20203;-75
2022/06/25 05:36:08;;;;;;;1.70;1.40;;;19.20;99.90;;;;;;5025175;28;21317;-73
2022/06/25 05:38:33;;;;;;;2.30;1.20;;;19.20;99.90;;;;;;5024462;28;20206;-74
2022/06/25 05:40:59;;;;;;;1.43;1.33;;;19.40;99.90;;;;;;5025094;28;20211;-74
2022/06/25 05:43:24;;;;;;;2.30;1.33;;;19.40;99.90;;;;;;5025249;28;20567;-74
2022/06/25 05:45:50;;;;;;;1.90;1.27;;;19.50;99.90;;;;;;5025086;28;20221;-74
2022/06/25 05:48:15;;;;;;;3.10;1.40;;;19.60;99.90;;;;;;5024782;28;20249;-74
2022/06/25 05:50:41;;;;;;;3.40;1.47;;;19.70;99.90;;;;;;5025025;28;20182;-75
2022/06/25 05:53:07;;;;;;;1.40;1.30;;;19.80;99.90;;;;;;5024627;28;20203;-74
2022/06/25 05:55:34;;;;;;;1.60;1.50;;;19.90;99.90;;;;;;5025231;28;20175;-74
2022/06/25 05:58:00;;;;;;;1.53;1.30;;;20.00;99.90;;;;;;5025046;28;20281;-75
2022/06/25 06:00:26;;;;;;;3.17;1.60;;;20.20;99.90;;;;;;5023612;28;20414;-75
2022/06/25 06:02:52;;;;;;;2.43;1.20;;;20.30;99.90;;;;;;5024500;28;20441;-75
2022/06/25 06:05:17;;;;;;;1.40;1.30;;;20.50;99.90;;;;;;5024978;28;20824;-75
2022/06/25 06:07:43;;;;;;;1.30;1.20;;;20.70;99.90;;;;;;5024740;28;20188;-75
2022/06/25 06:10:09;;;;;;;1.73;1.10;;;20.80;99.90;;;;;;5025026;28;20700;-75
2022/06/25 06:12:35;;;;;;;3.57;1.70;;;20.90;99.90;;;;;;5025618;28;20237;-75
2022/06/25 06:15:00;;;;;;;2.60;1.20;;;20.90;99.90;;;;;;5024808;28;20637;-75
2022/06/25 06:17:26;;;;;;;3.03;1.70;;;20.80;99.90;;;;;;5024824;28;20187;-74
2022/06/25 06:19:52;;;;;;;1.53;1.43;;;20.90;99.90;;;;;;5024645;28;20667;-74
2022/06/25 06:22:17;;;;;;;2.17;1.27;;;20.70;99.90;;;;;;5024889;28;20182;-74
2022/06/25 06:24:43;;;;;;;3.20;1.50;;;20.60;99.90;;;;;;5024484;28;20222;-74
2022/06/25 06:27:09;;;;;;;3.67;1.37;;;20.40;99.90;;;;;;5025193;28;20175;-75
2022/06/25 06:29:34;;;;;;;2.43;1.50;;;20.40;99.90;;;;;;5024662;28;20258;-74
2022/06/25 06:32:00;;;;;;;1.70;1.60;;;20.40;99.90;;;;;;5024483;28;20658;-74
2022/06/25 06:34:26;;;;;;;2.20;1.57;;;20.50;99.90;;;;;;5024614;28;20329;-76
2022/06/25 06:36:51;;;;;;;3.00;1.80;;;20.60;99.90;;;;;;5024710;28;20186;-75
2022/06/25 06:39:17;;;;;;;1.60;1.50;;;20.80;99.90;;;;;;5024006;28;20203;-75
2022/06/25 06:41:43;;;;;;;3.00;1.97;;;20.50;99.90;;;;;;5024284;28;20177;-75
2022/06/25 06:44:08;;;;;;;1.40;1.23;;;20.40;99.90;;;;;;5024245;28;20195;-75
2022/06/25 06:46:34;;;;;;;3.73;1.30;;;20.50;99.90;;;;;;5023229;28;20202;-75
2022/06/25 06:48:59;;;;;;;1.60;1.50;;;20.60;99.90;;;;;;5047600;22;20240;-74
2022/06/25 06:51:25;;;;;;;1.57;1.47;;;20.80;99.90;;;;;;5043443;28;20441;-75
2022/06/25 06:53:50;;;;;;;2.60;1.20;;;21.00;99.90;;;;;;5043859;28;20540;-74
2022/06/25 06:56:16;;;;;;;2.40;1.30;;;20.90;99.90;;;;;;5043534;28;20257;-74
2022/06/25 06:58:42;;;;;;;1.50;1.40;;;21.00;99.90;;;;;;5043399;28;20259;-74
2022/06/25 07:01:07;;;;;;;1.90;1.70;;;21.30;99.90;;;;;;5043764;28;20541;-73
2022/06/25 07:03:33;;;;;;;2.07;1.43;;;21.30;99.90;;;;;;5043890;28;20182;-73
2022/06/25 07:05:58;;;;;;;3.33;1.80;;;21.20;99.90;;;;;;5043621;28;20191;-73
2022/06/25 07:08:24;;;;;;;3.17;1.70;;;21.00;99.90;;;;;;5025543;28;20194;-72
2022/06/25 07:10:50;;;;;;;1.93;1.47;;;21.10;99.90;;;;;;5043126;28;20198;-74
2022/06/25 07:13:15;;;;;;;4.07;1.47;;;21.20;99.90;;;;;;5043727;28;20216;-72
2022/06/25 07:15:41;;;;;;;1.90;1.50;;;21.10;99.90;;;;;;5043645;28;20174;-75
2022/06/25 07:18:07;;;;;;;2.10;1.70;;;21.30;99.90;;;;;;5043393;28;20202;-73
2022/06/25 07:20:33;;;;;;;1.50;1.40;;;21.50;99.90;;;;;;5043575;28;20721;-73
2022/06/25 07:22:59;;;;;;;2.87;1.80;;;21.80;99.90;;;;;;5042883;28;20417;-74
2022/06/25 07:25:25;;;;;;;2.13;1.93;;;22.00;99.90;;;;;;5043478;28;20687;-73
2022/06/25 07:27:51;;;;;;;2.07;1.43;;;21.90;99.90;;;;;;5025001;28;20469;-72
2022/06/25 07:30:16;;;;;;;2.00;1.60;;;21.80;99.90;;;;;;5043274;28;20199;-74
2022/06/25 07:32:42;;;;;;;4.40;1.80;;;21.60;99.90;;;;;;5043161;28;20224;-73
2022/06/25 07:35:08;;;;;;;2.73;1.80;;;21.80;99.90;;;;;;5043299;28;20632;-72
2022/06/25 07:37:34;;;;;;;1.70;1.60;;;21.90;99.90;;;;;;5025214;28;20185;-73
2022/06/25 07:40:00;;;;;;;1.20;1.10;;;22.10;99.90;;;;;;5042858;28;20444;-73
2022/06/25 07:42:25;;;;;;;1.63;1.40;;;22.00;99.90;;;;;;5042999;28;20416;-73
2022/06/25 07:44:52;;;;;;;2.10;1.80;;;22.00;99.90;;;;;;5042929;28;20178;-73
2022/06/25 07:47:18;;;;;;;2.53;1.50;;;22.00;99.90;;;;;;5043019;28;20257;-73
2022/06/25 07:52:28;;;;;;;1.63;1.47;;;21.90;99.90;;;;;;5043488;28;20193;-73
2022/06/25 07:54:53;;;;;;;1.77;1.50;;;22.20;99.90;;;;;;5042651;28;20885;-73
2022/06/25 07:57:19;;;;;;;3.83;1.90;;;22.10;99.90;;;;;;5042851;28;20561;-74
2022/06/25 07:59:45;;;;;;;1.70;1.60;;;22.30;99.90;;;;;;5042830;28;20222;-75
2022/06/25 08:02:10;;;;;;;1.80;1.70;;;22.70;99.90;;;;;;5042909;28;20296;-76
2022/06/25 08:04:36;;;;;;;3.10;2.20;;;23.10;99.90;;;;;;5042871;28;20675;-74
2022/06/25 08:07:03;;;;;;;3.97;2.00;;;23.50;99.90;;;;;;5042040;28;20170;-76
2022/06/25 08:09:29;;;;;;;2.60;1.60;;;23.50;99.90;;;;;;5043252;28;20261;-74
2022/06/25 08:11:55;;;;;;;2.00;1.80;;;23.60;99.90;;;;;;5042299;28;20412;-74
2022/06/25 08:14:20;;;;;;;2.37;1.87;;;23.70;99.90;;;;;;5043136;28;20486;-74
2022/06/25 08:16:47;;;;;;;2.20;1.60;;;23.70;99.90;;;;;;5042942;28;20540;-75
2022/06/25 08:19:12;;;;;;;3.20;2.13;;;23.50;99.90;;;;;;5043065;28;20206;-75
2022/06/25 08:21:38;;;;;;;2.23;2.03;;;23.60;99.90;;;;;;5042867;28;20424;-75
2022/06/25 08:24:04;;;;;;;1.93;1.40;;;23.80;99.90;;;;;;5026223;28;20178;-75
2022/06/25 08:26:30;;;;;;;1.97;1.50;;;24.00;99.90;;;;;;5046072;28;20179;-74
2022/06/25 08:28:55;;;;;;;4.53;2.17;;;23.90;99.90;;;;;;5045607;28;20443;-72
2022/06/25 08:31:23;;;;;;;2.10;1.90;;;23.30;99.90;;;;;;5046332;28;20221;-73
2022/06/25 08:33:48;;;;;;;2.40;2.20;;;23.10;99.90;;;;;;5045648;28;20200;-74
2022/06/25 08:36:14;;;;;;;3.63;1.60;;;23.30;99.90;;;;;;5045918;28;20897;-73
2022/06/25 08:38:40;;;;;;;4.93;1.77;;;23.20;99.90;;;;;;5045614;28;20725;-73
2022/06/25 08:41:05;;;;;;;1.60;1.50;;;23.20;99.90;;;;;;5027902;28;20273;-72
2022/06/25 08:43:31;;;;;;;4.73;2.20;;;23.30;99.90;;;;;;5045883;28;20171;-73
2022/06/25 08:45:57;;;;;;;5.20;2.37;;;23.10;99.90;;;;;;5046104;28;20204;-75
2022/06/25 08:48:29;;;;;;;2.00;1.80;;;23.20;99.90;;;;;;5045772;28;20274;-75
2022/06/25 08:50:56;;;;;;;2.33;2.00;;;23.30;99.90;;;;;;5045753;28;20170;-74
2022/06/25 08:53:21;;;;;;;2.63;2.00;;;23.40;99.90;;;;;;5045362;28;20470;-74
2022/06/25 08:55:48;;;;;;;3.43;1.80;;;23.10;99.90;;;;;;5045579;28;20425;-74
2022/06/25 08:58:14;;;;;;;2.43;1.40;;;23.20;99.90;;;;;;5045245;28;20198;-74
2022/06/25 09:00:42;;;;;;;4.30;1.80;;;23.50;99.90;;;;;;5045453;28;21425;-74
2022/06/25 09:03:09;;;;;;;1.70;1.47;;;23.70;99.90;;;;;;5045485;28;20941;-74
2022/06/25 09:05:42;;;;;;;1.73;1.63;;;24.00;99.90;;;;;;5045533;28;20429;-75
2022/06/25 09:08:11;;;;;;;2.03;1.83;;;24.60;99.90;;;;;;5045154;28;20417;-72
2022/06/25 09:10:37;;;;;;;2.80;2.37;;;24.50;99.90;;;;;;5045451;28;20503;-74
2022/06/25 09:13:06;;;;;;;3.30;1.80;;;24.40;99.90;;;;;;5045149;28;20413;-74
2022/06/25 09:15:44;;;;;;;2.20;1.83;;;24.40;99.90;;;;;;5045125;28;20508;-75
2022/06/25 09:18:12;;;;;;;1.90;1.80;;;24.40;99.90;;;;;;5045016;28;20476;-74
2022/06/25 09:20:59;;;;;;;2.73;1.77;;;24.50;99.90;;;;;;5045139;28;20496;-74
2022/06/25 09:23:37;;;;;;;1.67;1.57;;;24.30;99.90;;;;;;5029316;28;20597;-74
2022/06/25 09:26:04;;;;;;;1.70;1.60;;;24.30;99.90;;;;;;5045359;28;20409;-75
2022/06/25 09:28:36;;;;;;;3.10;1.83;;;24.20;99.90;;;;;;5044909;28;20425;-74
2022/06/25 09:31:02;;;;;;;2.30;1.80;;;24.30;99.90;;;;;;5045533;28;20405;-75
2022/06/25 09:33:30;;;;;;;2.87;2.20;;;24.40;99.90;;;;;;5026867;28;20540;-75
2022/06/25 09:35:56;;;;;;;2.50;1.63;;;24.60;99.90;;;;;;5044848;28;20421;-74
2022/06/25 09:38:22;;;;;;;4.20;1.67;;;24.80;99.90;;;;;;5044638;28;20518;-74
2022/06/25 09:40:52;;;;;;;3.47;1.67;;;24.60;99.90;;;;;;5044736;28;20456;-74
2022/06/25 09:43:20;;;;;;;1.90;1.70;;;24.30;99.90;;;;;;5043457;28;20431;-75
2022/06/25 09:45:49;;;;;;;1.90;1.80;;;24.30;99.90;;;;;;5045157;28;20909;-74
2022/06/25 09:48:25;;;;;;;2.20;1.80;;;24.60;99.90;;;;;;5045050;28;20432;-73
2022/06/25 09:51:04;;;;;;;1.90;1.70;;;24.90;99.90;;;;;;5044878;28;20405;-75
2022/06/25 09:53:30;;;;;;;2.40;1.77;;;25.00;99.90;;;;;;5044232;28;20420;-73
2022/06/25 09:55:56;;;;;;;1.80;1.60;;;24.90;99.90;;;;;;5044848;28;20476;-75
2022/06/25 09:58:23;;;;;;;4.97;2.03;;;25.00;99.90;;;;;;5044359;28;20522;-75
2022/06/25 10:00:49;;;;;;;2.03;1.60;;;24.80;99.90;;;;;;5026513;28;20517;-74
2022/06/25 10:03:15;;;;;;;2.10;2.00;;;24.90;99.90;;;;;;5044454;28;20500;-75
2022/06/25 10:05:41;;;;;;;2.17;1.97;;;24.80;99.90;;;;;;5026423;28;20559;-75
2022/06/25 10:08:10;;;;;;;1.93;1.70;;;25.00;99.90;;;;;;5044371;28;20663;-74
2022/06/25 10:10:46;;;;;;;4.33;2.23;;;25.30;99.90;;;;;;5044310;28;20508;-74
2022/06/25 10:13:13;;;;;;;3.53;1.80;;;25.60;99.90;;;;;;5044230;28;20416;-75
2022/06/25 10:15:38;;;;;;;3.13;2.10;;;25.50;99.90;;;;;;5044845;28;20795;-75
2022/06/25 10:18:07;;;;;;;2.90;2.00;;;25.20;99.90;;;;;;5044193;28;20444;-75
2022/06/25 10:20:33;;;;;;;2.50;1.97;;;25.20;99.90;;;;;;5044041;28;20651;-74
2022/06/25 10:23:01;;;;;;;3.83;1.90;;;25.20;99.90;;;;;;5043897;28;20471;-75
2022/06/25 10:25:28;;;;;;;5.13;2.20;;;25.30;99.90;;;;;;5043886;28;20420;-74
2022/06/25 10:28:14;;;;;;;3.93;1.97;;;25.10;99.90;;;;;;5044123;28;20754;-74
2022/06/25 10:30:42;;;;;;;4.80;1.60;;;25.40;99.90;;;;;;5043819;28;20413;-75
2022/06/25 10:33:08;;;;;;;2.33;1.47;;;25.70;99.90;;;;;;5044261;28;20464;-75
2022/06/25 10:35:36;;;;;;;2.00;1.83;;;25.70;99.90;;;;;;5044123;28;20514;-75
2022/06/25 10:38:13;;;;;;;2.30;1.97;;;25.70;99.90;;;;;;5043780;28;20563;-73
2022/06/25 10:40:52;;;;;;;5.50;1.43;;;25.70;99.90;;;;;;5043925;28;20485;-75
2022/06/25 10:43:38;;;;;;;2.97;1.90;;;25.60;99.90;;;;;;5043708;28;20452;-75
2022/06/25 10:46:31;;;;;;;2.03;1.77;;;25.60;99.70;;;;;;5025551;28;20440;-73
2022/06/25 10:49:22;;;;;;;3.07;1.60;;;25.60;99.90;;;;;;5043823;28;20451;-74
2022/06/25 10:51:49;;;;;;;2.43;1.40;;;25.70;99.90;;;;;;5043716;28;20401;-74
2022/06/25 10:54:27;;;;;;;3.23;1.90;;;25.90;99.70;;;;;;5043297;28;20738;-74
2022/06/25 10:56:55;;;;;;;2.10;1.90;;;26.10;99.90;;;;;;5044053;28;20745;-73
2022/06/25 10:59:36;;;;;;;1.80;1.70;;;25.80;99.90;;;;;;5043904;28;20559;-74
2022/06/25 11:02:04;;;;;;;2.10;1.67;;;26.00;99.50;;;;;;5044312;28;20782;-73
2022/06/25 11:04:32;;;;;;;4.07;2.07;;;25.90;99.30;;;;;;5044403;28;20412;-72
2022/06/25 11:07:07;;;;;;;1.60;1.50;;;25.60;99.10;;;;;;5043696;28;20409;-73
2022/06/25 11:09:32;;;;;;;4.40;2.60;;;25.50;99.20;;;;;;5043913;28;20860;-73
2022/06/25 11:11:59;;;;;;;3.30;1.63;;;25.60;99.90;;;;;;5043298;28;20496;-74
2022/06/25 11:14:25;;;;;;;2.47;1.43;;;25.90;97.70;;;;;;5043541;28;20179;-73
2022/06/25 11:16:52;;;;;;;4.13;2.17;;;25.60;99.90;;;;;;5043589;28;20409;-74
2022/06/25 11:19:20;;;;;;;2.43;2.00;;;25.60;98.70;;;;;;5043334;28;20457;-73
2022/06/25 11:21:46;;;;;;;2.40;2.10;;;25.70;98.50;;;;;;5043700;28;20417;-73
2022/06/25 11:24:15;;;;;;;2.53;1.97;;;25.80;98.30;;;;;;5025486;28;20962;-74
2022/06/25 11:29:32;;;;;;;3.40;1.77;;;26.50;98.50;;;;;;5043792;28;20812;-73
2022/06/25 11:31:58;;;;;;;2.17;1.70;;;27.00;99.00;;;;;;5043817;28;20456;-73
2022/06/25 11:34:25;;;;;;;1.77;1.67;;;27.30;96.00;;;;;;5044156;28;20459;-74
2022/06/25 11:36:59;;;;;;;3.27;1.60;;;28.30;95.60;;;;;;5043809;28;20494;-76
2022/06/25 11:39:25;;;;;;;2.50;1.43;;;29.20;92.90;;;;;;5043258;28;20501;-75
2022/06/25 11:41:51;;;;;;;2.43;1.37;;;30.60;92.50;;;;;;5043121;28;20509;-75
2022/06/25 11:44:18;;;;;;;2.20;1.40;;;30.60;86.20;;;;;;5025487;28;20391;-75
2022/06/25 11:46:44;;;;;;;3.43;1.07;;;30.90;86.60;;;;;;5043507;28;20857;-75
2022/06/25 11:49:10;;;;;;;2.93;1.77;;;31.40;79.70;;;;;;5024878;28;20494;-75
2022/06/25 11:51:47;;;;;;;2.07;1.27;;;32.20;79.50;;;;;;5043111;28;20421;-75
2022/06/25 11:54:13;;;;;;;1.70;1.30;;;33.00;71.70;;;;;;5043019;28;20447;-74
2022/06/25 11:56:47;;;;;;;5.63;1.63;;;32.50;73.00;;;;;;5042409;28;20416;-73
2022/06/25 11:59:15;;;;;;;1.60;1.30;;;32.80;68.60;;;;;;5047441;28;20456;-73
2022/06/25 12:01:40;;;;;;;1.20;1.10;;;33.50;65.70;;;;;;5046951;28;20417;-73
2022/06/25 12:04:06;;;;;;;1.20;1.10;;;32.90;65.70;;;;;;5046669;28;20438;-75
2022/06/25 12:06:33;;;;;;;2.30;1.40;;;33.00;68.90;;;;;;5046988;28;20654;-74
2022/06/25 12:09:00;;;;;;;2.07;1.50;;;34.20;65.10;;;;;;5046200;28;20248;-74
2022/06/25 12:11:28;;;;;;;2.60;1.70;;;34.40;64.80;;;;;;5046937;28;20436;-73
2022/06/25 12:13:54;;;;;;;2.00;1.20;;;34.20;66.30;;;;;;5046567;28;20412;-73
2022/06/25 12:16:20;;;;;;;1.83;1.30;;;34.00;62.50;;;;;;5046922;28;20917;-75
2022/06/25 12:18:45;;;;;;;3.97;1.67;;;34.00;62.70;;;;;;5046791;28;20210;-73
2022/06/25 12:21:18;;;;;;;1.53;1.20;;;34.30;63.50;;;;;;5046824;28;20228;-72
2022/06/25 12:23:51;;;;;;;2.93;1.43;;;34.70;59.20;;;;;;5046474;28;20220;-72
2022/06/25 12:26:34;;;;;;;1.67;0.93;;;35.40;59.30;;;;;;5046404;28;20492;-70
2022/06/25 12:29:27;;;;;;;1.40;1.20;;;34.90;56.00;;;;;;5046550;28;20468;-71
2022/06/25 12:31:56;;;;;;;2.13;1.13;;;34.70;56.30;;;;;;5046289;28;20428;-70
2022/06/25 12:34:22;;;;;;;1.80;1.30;;;35.30;57.70;;;;;;5045209;28;20482;-69
2022/06/25 12:36:49;;;;;;;1.70;1.30;;;34.50;61.00;;;;;;5046670;28;20445;-70
2022/06/25 12:39:32;;;;;;;2.23;1.00;;;35.10;59.30;;;;;;5045743;28;20873;-71
2022/06/25 12:42:05;;;;;;;1.73;1.20;;;36.30;53.30;;;;;;5027931;28;20432;-71
2022/06/25 12:44:34;;;;;;;3.23;1.40;;;35.10;54.10;;;;;;5028072;28;20420;-70
2022/06/25 12:47:11;;;;;;;2.43;1.10;;;35.30;53.90;;;;;;5046188;28;20843;-71
2022/06/25 12:49:43;;;;;;;1.47;1.20;;;35.80;53.70;;;;;;5045951;28;20487;-70
2022/06/25 12:52:09;;;;;;;2.77;1.13;;;36.00;52.90;;;;;;5046137;28;20413;-71
2022/06/25 12:54:48;;;;;;;3.43;1.10;;;36.80;53.60;;;;;;5045362;28;20519;-70
2022/06/25 12:57:30;;;;;;;2.20;1.00;;;36.10;52.30;;;;;;5045776;28;20489;-70
2022/06/25 12:59:58;;;;;;;1.30;1.20;;;35.90;53.80;;;;;;5045301;28;20827;-68
2022/06/25 13:02:24;;;;;;;4.60;1.30;;;34.90;55.20;;;;;;5045574;28;20413;-70